Time;durP1;ratioP1;P1;durP2;ratioP2;P2;SDS_P1;SDS_P2;PMS_P1;PMS_P2;Temp;Humidity;BMP_temperature;BMP_pressure;BME280_temperature;BME280_humidity;BME280_pressure;Samples;Min_cycle;Max_cycle;Signal;HPM_P1;HPM_P2
2023/09/13 00:02:03;;;;;;;44.97;25.13;;;;;;;-148.15;100.00;61821.78;4913339;29;20102;-92
2023/09/13 00:04:28;;;;;;;49.60;26.98;;;;;;;-148.15;100.00;61821.78;4929402;29;20039;-93
2023/09/13 00:06:54;;;;;;;47.47;26.33;;;;;;;-148.15;100.00;61821.78;4933245;29;20035;-92
2023/09/13 00:09:19;;;;;;;49.73;26.70;;;;;;;-148.15;100.00;61821.78;4935866;29;20036;-92
2023/09/13 00:11:45;;;;;;;62.33;29.33;;;;;;;-148.15;100.00;61821.78;4936430;29;20042;-92
2023/09/13 00:14:10;;;;;;;54.10;28.57;;;;;;;-148.15;100.00;61821.78;4937640;29;20023;-92
2023/09/13 00:16:35;;;;;;;54.63;28.77;;;;;;;-148.15;100.00;61821.78;4933804;29;20031;-92
2023/09/13 00:19:03;;;;;;;59.97;29.80;;;;;;;-148.15;100.00;61821.78;4935546;29;20114;-92
2023/09/13 00:21:29;;;;;;;62.03;31.35;;;;;;;-148.15;100.00;61821.78;4936219;29;20399;-93
2023/09/13 00:23:54;;;;;;;59.07;29.73;;;;;;;-148.15;100.00;61821.78;4937704;29;20032;-93
2023/09/13 00:26:20;;;;;;;59.83;30.80;;;;;;;-148.15;100.00;61821.78;4935910;29;20055;-93
2023/09/13 00:28:46;;;;;;;61.83;31.13;;;;;;;-148.15;100.00;61821.78;4937341;29;20300;-93
2023/09/13 00:31:11;;;;;;;60.37;32.30;;;;;;;-148.15;100.00;61821.78;4935581;29;20032;-93
2023/09/13 00:33:38;;;;;;;58.55;32.72;;;;;;;-148.15;100.00;61821.78;4936227;29;20060;-92
2023/09/13 00:36:03;;;;;;;63.17;31.38;;;;;;;-148.15;100.00;61821.78;4938515;29;20585;-92
2023/09/13 00:38:29;;;;;;;59.20;30.97;;;;;;;-148.15;100.00;61821.78;4934886;29;20034;-93
2023/09/13 00:40:54;;;;;;;58.83;30.57;;;;;;;-148.15;100.00;61821.78;4926872;29;20067;-92
2023/09/13 00:43:20;;;;;;;56.17;29.50;;;;;;;-148.15;100.00;61821.78;4937425;29;20379;-93
2023/09/13 00:45:48;;;;;;;52.43;29.10;;;;;;;-148.15;100.00;61821.78;4936593;29;20037;-93
2023/09/13 00:48:14;;;;;;;64.32;31.98;;;;;;;-148.15;100.00;61821.78;4936075;29;20098;-93
2023/09/13 00:50:40;;;;;;;56.85;30.48;;;;;;;-148.15;100.00;61821.78;4921021;29;20038;-93
2023/09/13 00:53:06;;;;;;;59.83;30.52;;;;;;;-148.15;100.00;61821.78;4935317;29;20155;-93
2023/09/13 00:55:32;;;;;;;57.50;31.43;;;;;;;-148.15;100.00;61821.78;4932703;29;20114;-93
2023/09/13 00:57:58;;;;;;;65.85;32.35;;;;;;;-148.15;100.00;61821.78;4945598;29;20024;-93
2023/09/13 01:00:26;;;;;;;60.05;30.30;;;;;;;-148.15;100.00;61821.78;4919218;29;20027;-94
2023/09/13 01:02:52;;;;;;;60.55;31.67;;;;;;;-148.15;100.00;61821.78;4940245;29;20143;-93
2023/09/13 01:05:18;;;;;;;67.57;32.42;;;;;;;-148.15;100.00;61821.78;4943753;29;20036;-92
2023/09/13 01:07:46;;;;;;;69.17;33.23;;;;;;;-148.15;100.00;61821.78;4936523;29;20387;-93
2023/09/13 01:10:11;;;;;;;64.57;32.40;;;;;;;-148.15;100.00;61821.78;4935973;29;20054;-93
2023/09/13 01:12:37;;;;;;;73.87;34.67;;;;;;;-148.15;100.00;61821.78;4934033;29;20028;-93
2023/09/13 01:15:07;;;;;;;77.30;35.33;;;;;;;-148.15;100.00;61821.78;4934782;29;20027;-92
2023/09/13 01:18:03;;;;;;;71.00;34.03;;;;;;;-148.15;100.00;61821.78;4927907;29;20024;-93
2023/09/13 01:20:53;;;;;;;80.60;35.90;;;;;;;-148.15;100.00;61821.78;4936555;29;20043;-92
2023/09/13 01:23:43;;;;;;;83.50;37.97;;;;;;;-148.15;100.00;61821.78;4935283;29;20364;-93
2023/09/13 01:26:42;;;;;;;85.60;38.60;;;;;;;-148.15;100.00;61821.78;4931667;29;20370;-93
2023/09/13 01:29:14;;;;;;;79.43;35.50;;;;;;;-148.15;100.00;61821.78;4924797;29;20034;-93
2023/09/13 01:31:40;;;;;;;91.70;37.60;;;;;;;-148.15;100.00;61821.78;4929632;29;20027;-94
2023/09/13 01:34:05;;;;;;;90.60;39.33;;;;;;;-148.15;100.00;61821.78;4935922;29;20542;-95
2023/09/13 01:36:31;;;;;;;94.77;39.47;;;;;;;-148.15;100.00;61821.78;4934651;29;20119;-94
2023/09/13 01:38:56;;;;;;;89.50;39.90;;;;;;;-148.15;100.00;61821.78;4935134;29;20124;-94
2023/09/13 01:41:31;;;;;;;87.90;38.80;;;;;;;-148.15;100.00;61821.78;4934573;29;20095;-94
2023/09/13 01:43:58;;;;;;;93.07;39.37;;;;;;;-148.15;100.00;61821.78;4934561;29;20039;-93
2023/09/13 01:46:28;;;;;;;93.90;40.93;;;;;;;-148.15;100.00;61821.78;4934431;29;20311;-93
2023/09/13 01:48:56;;;;;;;96.82;40.85;;;;;;;-148.15;100.00;61821.78;4936406;29;20047;-93
2023/09/13 01:51:23;;;;;;;109.85;43.17;;;;;;;-148.15;100.00;61821.78;4935478;29;20030;-93
2023/09/13 01:53:49;;;;;;;106.40;42.90;;;;;;;-148.15;100.00;61821.78;4936061;29;20059;-93
2023/09/13 01:56:16;;;;;;;107.82;43.35;;;;;;;-148.15;100.00;61821.78;4933209;29;20043;-94
2023/09/13 01:58:42;;;;;;;106.63;43.50;;;;;;;-148.15;100.00;61821.78;4934658;29;20042;-93
2023/09/13 02:01:07;;;;;;;113.90;46.70;;;;;;;-148.15;100.00;61821.78;4934601;29;20417;-94
2023/09/13 02:03:32;;;;;;;109.77;43.87;;;;;;;-148.15;100.00;61821.78;4935237;29;20032;-93
2023/09/13 02:05:57;;;;;;;114.23;46.00;;;;;;;-148.15;100.00;61821.78;4932461;29;20059;-93
2023/09/13 02:08:23;;;;;;;120.20;46.57;;;;;;;-148.15;100.00;61821.78;4926557;29;20032;-93
2023/09/13 02:10:48;;;;;;;127.47;48.30;;;;;;;-148.15;100.00;61821.78;4934271;29;20546;-93
2023/09/13 02:13:14;;;;;;;122.17;44.90;;;;;;;-148.15;100.00;61821.78;4935615;29;20110;-93
2023/09/13 02:15:40;;;;;;;125.50;45.70;;;;;;;-148.15;100.00;61821.78;4927368;29;20038;-94
2023/09/13 02:18:06;;;;;;;126.63;47.53;;;;;;;-148.15;100.00;61821.78;4931133;29;20035;-94
2023/09/13 02:20:31;;;;;;;126.37;47.60;;;;;;;-148.15;100.00;61821.78;4929831;29;20115;-93
2023/09/13 02:22:56;;;;;;;133.63;50.10;;;;;;;-148.15;100.00;61821.78;4946998;29;20075;-92
2023/09/13 02:25:22;;;;;;;135.30;49.93;;;;;;;-148.15;100.00;61821.78;4955168;29;20295;-92
2023/09/13 02:27:47;;;;;;;140.97;49.60;;;;;;;-148.15;100.00;61821.78;4953496;29;20028;-93
2023/09/13 02:30:12;;;;;;;142.83;51.80;;;;;;;-148.15;100.00;61821.78;4952855;29;20035;-93
2023/09/13 02:32:38;;;;;;;162.60;53.67;;;;;;;-148.15;100.00;61821.78;4953250;29;20130;-94
2023/09/13 02:35:04;;;;;;;176.80;54.40;;;;;;;-148.15;100.00;61821.78;4942583;29;20031;-94
2023/09/13 02:37:30;;;;;;;158.47;54.50;;;;;;;-148.15;100.00;61821.78;4913986;29;20383;-94
2023/09/13 02:39:57;;;;;;;171.70;56.08;;;;;;;-148.15;100.00;61821.78;4953742;29;20040;-94
2023/09/13 02:42:23;;;;;;;171.90;54.83;;;;;;;-148.15;100.00;61821.78;4940152;29;20070;-93
2023/09/13 02:44:48;;;;;;;178.23;55.30;;;;;;;-148.15;100.00;61821.78;4934874;29;20063;-93
2023/09/13 02:47:14;;;;;;;181.63;55.70;;;;;;;-148.15;100.00;61821.78;4934096;29;20024;-95
2023/09/13 02:49:40;;;;;;;183.10;56.40;;;;;;;-148.15;100.00;61821.78;4934335;29;20695;-94
2023/09/13 02:52:05;;;;;;;175.43;55.60;;;;;;;-148.15;100.00;61821.78;4936887;29;20028;-92
2023/09/13 02:54:30;;;;;;;183.35;56.40;;;;;;;-148.15;100.00;61821.78;4936803;29;20035;-94
2023/09/13 02:56:56;;;;;;;191.77;57.73;;;;;;;-148.15;100.00;61821.78;4933538;29;20048;-94
2023/09/13 02:59:21;;;;;;;185.43;57.27;;;;;;;-148.15;100.00;61821.78;4934976;29;20035;-93
2023/09/13 03:01:49;;;;;;;197.80;58.93;;;;;;;-148.15;100.00;61821.78;4934198;29;20024;-93
2023/09/13 03:04:14;;;;;;;190.70;57.97;;;;;;;-148.15;100.00;61821.78;4931935;29;20028;-94
2023/09/13 03:06:40;;;;;;;192.70;58.10;;;;;;;-148.15;100.00;61821.78;4912538;29;20036;-94
2023/09/13 03:09:05;;;;;;;181.10;55.83;;;;;;;-148.15;100.00;61821.78;4929429;29;20111;-93
2023/09/13 03:11:31;;;;;;;184.83;57.03;;;;;;;-148.15;100.00;61821.78;4933183;29;20095;-93
2023/09/13 03:13:56;;;;;;;172.05;54.03;;;;;;;-148.15;100.00;61821.78;4953196;29;20042;-94
2023/09/13 03:16:22;;;;;;;171.47;55.57;;;;;;;-148.15;100.00;61821.78;4954039;29;20028;-94
2023/09/13 03:18:49;;;;;;;169.15;54.00;;;;;;;-148.15;100.00;61821.78;4955032;29;20043;-94
2023/09/13 03:21:18;;;;;;;167.18;54.85;;;;;;;-148.15;100.00;61821.78;4954361;29;20081;-94
2023/09/13 03:23:46;;;;;;;179.73;55.17;;;;;;;-148.15;100.00;61821.78;4947181;28;20027;-93
2023/09/13 03:26:18;;;;;;;177.67;54.63;;;;;;;-148.15;100.00;61821.78;4949664;29;20024;-90
2023/09/13 03:28:46;;;;;;;175.20;53.75;;;;;;;-148.15;100.00;61821.78;4941210;29;20098;-92
2023/09/13 03:31:13;;;;;;;170.57;54.75;;;;;;;-148.15;100.00;61821.78;4935349;29;20032;-96
2023/09/13 03:33:39;;;;;;;171.18;55.00;;;;;;;-148.15;100.00;61821.78;4932182;29;20482;-94
2023/09/13 03:36:09;;;;;;;166.05;53.15;;;;;;;-148.15;100.00;61821.78;4937020;29;20734;-93
2023/09/13 03:38:37;;;;;;;161.13;51.97;;;;;;;-148.15;100.00;61821.78;4917585;29;20067;-93
2023/09/13 03:41:04;;;;;;;147.55;48.88;;;;;;;-148.15;100.00;61821.78;4922833;29;20061;-93
2023/09/13 03:43:29;;;;;;;149.80;50.63;;;;;;;-148.15;100.00;61821.78;4939487;29;20119;-94
2023/09/13 03:45:55;;;;;;;148.03;49.23;;;;;;;-148.15;100.00;61821.78;4932618;29;20472;-93
2023/09/13 03:48:21;;;;;;;151.68;50.42;;;;;;;-148.15;100.00;61821.78;4933438;29;20027;-93
2023/09/13 03:50:46;;;;;;;144.90;49.07;;;;;;;-148.15;100.00;61821.78;4932268;29;20040;-94
2023/09/13 03:53:12;;;;;;;160.20;50.77;;;;;;;-148.15;100.00;61821.78;4931340;29;20028;-93
2023/09/13 03:55:37;;;;;;;146.65;50.38;;;;;;;-148.15;100.00;61821.78;4915157;29;20032;-94
2023/09/13 03:58:03;;;;;;;159.07;51.60;;;;;;;-148.15;100.00;61821.78;4932848;29;20028;-94
2023/09/13 04:00:28;;;;;;;158.60;53.08;;;;;;;-148.15;100.00;61821.78;4932492;29;20028;-94
2023/09/13 04:02:54;;;;;;;150.53;51.27;;;;;;;-148.15;100.00;61821.78;4932577;29;20032;-93
2023/09/13 04:05:19;;;;;;;155.00;49.77;;;;;;;-148.15;100.00;61821.78;4930496;29;20468;-92
2023/09/13 04:07:44;;;;;;;152.73;51.27;;;;;;;-148.15;100.00;61821.78;4930003;29;20039;-94
2023/09/13 04:10:10;;;;;;;151.25;49.72;;;;;;;-148.15;100.00;61821.78;4933276;29;20036;-94
2023/09/13 04:12:35;;;;;;;156.90;51.63;;;;;;;-148.15;100.00;61821.78;4931434;29;20036;-94
2023/09/13 04:15:00;;;;;;;149.57;48.30;;;;;;;-148.15;100.00;61821.78;4926060;29;20150;-94
2023/09/13 04:17:26;;;;;;;155.17;51.17;;;;;;;-148.15;100.00;61821.78;4930738;29;20047;-93
2023/09/13 04:19:51;;;;;;;140.37;49.07;;;;;;;-148.15;100.00;61821.78;4933235;29;20060;-93
2023/09/13 04:22:16;;;;;;;146.70;49.80;;;;;;;-148.15;100.00;61821.78;4932837;29;20031;-93
2023/09/13 04:24:45;;;;;;;144.50;50.05;;;;;;;-148.15;100.00;61821.78;4933143;29;20054;-91
2023/09/13 04:27:10;;;;;;;153.70;51.37;;;;;;;-148.15;100.00;61821.78;4927689;29;20027;-94
2023/09/13 04:29:39;;;;;;;142.93;50.03;;;;;;;-148.15;100.00;61821.78;4914809;29;20290;-93
2023/09/13 04:32:05;;;;;;;150.98;50.88;;;;;;;-148.15;100.00;61821.78;4920552;29;20024;-95
2023/09/13 04:34:36;;;;;;;145.07;50.60;;;;;;;-148.15;100.00;61821.78;4934085;29;20119;-94
2023/09/13 04:37:02;;;;;;;142.38;50.15;;;;;;;-148.15;100.00;61821.78;4926309;29;20142;-95
2023/09/13 04:39:28;;;;;;;144.70;49.22;;;;;;;-148.15;100.00;61821.78;4934038;29;20100;-95
2023/09/13 04:41:54;;;;;;;144.32;49.58;;;;;;;-148.15;100.00;61821.78;4931819;29;20039;-95
2023/09/13 04:44:19;;;;;;;138.30;47.10;;;;;;;-148.15;100.00;61821.78;4938478;29;20008;-96
2023/09/13 04:46:45;;;;;;;149.53;50.63;;;;;;;-148.15;100.00;61821.78;4925865;29;20032;-95
2023/09/13 04:49:10;;;;;;;145.03;48.50;;;;;;;-148.15;100.00;61821.78;4935752;29;20399;-96
2023/09/13 04:51:35;;;;;;;141.50;47.53;;;;;;;-148.15;100.00;61821.78;4933271;29;20074;-95
2023/09/13 04:54:01;;;;;;;139.13;46.90;;;;;;;-148.15;100.00;61821.78;4946353;29;20016;-96
2023/09/13 04:56:26;;;;;;;126.75;45.00;;;;;;;-148.15;100.00;61821.78;4943549;29;20464;-96
2023/09/13 04:58:52;;;;;;;129.23;45.73;;;;;;;-148.15;100.00;61821.78;4937681;29;20096;-95
2023/09/13 05:01:17;;;;;;;135.70;46.07;;;;;;;-148.15;100.00;61821.78;4952325;29;20503;-95
2023/09/13 05:03:44;;;;;;;142.67;47.70;;;;;;;-148.15;100.00;61821.78;4927821;29;20530;-95
2023/09/13 05:06:10;;;;;;;140.25;46.28;;;;;;;-148.15;100.00;61821.78;4936778;29;20031;-94
2023/09/13 05:08:37;;;;;;;139.30;47.27;;;;;;;-148.15;100.00;61821.78;4936229;29;20043;-94
2023/09/13 05:11:03;;;;;;;136.85;45.47;;;;;;;-148.15;100.00;61821.78;4912294;29;20024;-96
2023/09/13 05:13:29;;;;;;;149.88;47.55;;;;;;;-148.15;100.00;61821.78;4936576;29;20031;-96
2023/09/13 05:15:54;;;;;;;136.20;45.53;;;;;;;-148.15;100.00;61821.78;4943284;29;20036;-96
2023/09/13 05:18:19;;;;;;;138.43;45.57;;;;;;;-148.15;100.00;61821.78;4944360;29;20053;-95
2023/09/13 05:20:45;;;;;;;135.43;45.83;;;;;;;-148.15;100.00;61821.78;4944077;29;20380;-94
2023/09/13 05:23:10;;;;;;;116.20;41.40;;;;;;;-148.15;100.00;61821.78;4939022;29;20040;-95
2023/09/13 05:25:43;;;;;;;119.17;41.97;;;;;;;-148.15;100.00;61821.78;4935967;29;20043;-94
2023/09/13 05:28:08;;;;;;;125.45;42.70;;;;;;;-148.15;100.00;61821.78;4937076;29;20046;-94
2023/09/13 05:30:33;;;;;;;131.23;44.90;;;;;;;-148.15;100.00;61821.78;4933225;29;20139;-94
2023/09/13 05:32:59;;;;;;;142.33;47.07;;;;;;;-148.15;100.00;61821.78;4933789;29;20027;-93
2023/09/13 05:35:28;;;;;;;119.87;44.13;;;;;;;-148.15;100.00;61821.78;4936210;29;20036;-94
2023/09/13 05:37:54;;;;;;;111.15;42.33;;;;;;;-148.15;100.00;61821.78;4932151;29;20031;-96
2023/09/13 05:40:19;;;;;;;115.27;40.90;;;;;;;-148.15;100.00;61821.78;4924899;29;20107;-94
2023/09/13 05:42:44;;;;;;;109.50;41.43;;;;;;;-148.15;100.00;61821.78;4938763;29;20037;-94
2023/09/13 05:45:10;;;;;;;109.53;40.88;;;;;;;-148.15;100.00;61821.78;4937880;29;20106;-96
2023/09/13 05:47:35;;;;;;;122.97;42.20;;;;;;;-148.15;100.00;61821.78;4936191;29;20032;-95
2023/09/13 05:50:00;;;;;;;133.37;44.50;;;;;;;-148.15;100.00;61821.78;4936108;29;20034;-94
2023/09/13 05:52:25;;;;;;;126.63;44.07;;;;;;;-148.15;100.00;61821.78;4937581;29;20117;-96
2023/09/13 05:54:51;;;;;;;135.10;45.07;;;;;;;-148.15;100.00;61821.78;4942228;29;20039;-96
2023/09/13 05:57:16;;;;;;;130.20;46.07;;;;;;;-148.15;100.00;61821.78;4941897;29;20044;-93
2023/09/13 05:59:42;;;;;;;123.95;44.60;;;;;;;-148.15;100.00;61821.78;4941977;29;20034;-95
2023/09/13 06:02:07;;;;;;;118.57;43.83;;;;;;;-148.15;100.00;61821.78;4935697;29;20024;-95
2023/09/13 06:04:33;;;;;;;118.03;43.00;;;;;;;-148.15;100.00;61821.78;4941094;29;20609;-96
2023/09/13 06:06:58;;;;;;;122.83;44.30;;;;;;;-148.15;100.00;61821.78;4939971;29;20038;-94
2023/09/13 06:09:23;;;;;;;117.70;41.37;;;;;;;-148.15;100.00;61821.78;4931106;29;20290;-95
2023/09/13 06:11:49;;;;;;;124.47;42.13;;;;;;;-148.15;100.00;61821.78;4943666;29;20091;-93
2023/09/13 06:14:16;;;;;;;109.53;41.47;;;;;;;-148.15;100.00;61821.78;4942402;29;20442;-96
2023/09/13 06:16:41;;;;;;;107.67;41.77;;;;;;;-148.15;100.00;61821.78;4938920;29;20051;-95
2023/09/13 06:19:07;;;;;;;111.23;43.37;;;;;;;-148.15;100.00;61821.78;4939286;29;20377;-96
2023/09/13 06:21:33;;;;;;;101.60;41.80;;;;;;;-148.15;100.00;61821.78;4919849;29;20059;-96
2023/09/13 06:23:58;;;;;;;105.13;40.67;;;;;;;-148.15;100.00;61821.78;4935473;29;20028;-95
2023/09/13 06:26:24;;;;;;;102.40;39.90;;;;;;;-148.15;100.00;61821.78;4922125;29;20028;-95
2023/09/13 06:28:49;;;;;;;102.80;38.93;;;;;;;-148.15;100.00;61821.78;4938278;29;20040;-94
2023/09/13 06:31:15;;;;;;;90.90;37.92;;;;;;;-148.15;100.00;61821.78;4923142;29;20032;-96
2023/09/13 06:33:42;;;;;;;100.10;39.67;;;;;;;-148.15;100.00;61821.78;4922341;29;20055;-96
2023/09/13 06:36:09;;;;;;;94.15;37.95;;;;;;;-148.15;100.00;61821.78;4928814;29;20047;-96
2023/09/13 06:38:35;;;;;;;88.75;37.13;;;;;;;-148.15;100.00;61821.78;4950497;29;20122;-96
2023/09/13 06:41:00;;;;;;;83.50;34.33;;;;;;;-148.15;100.00;61821.78;4946147;29;20035;-96
2023/09/13 06:43:30;;;;;;;87.95;36.17;;;;;;;-148.15;100.00;61821.78;4948304;29;20114;-94
2023/09/13 06:45:56;;;;;;;82.10;35.25;;;;;;;-148.15;100.00;61821.78;4938012;29;20035;-96
2023/09/13 06:48:23;;;;;;;88.23;35.83;;;;;;;-148.15;100.00;61821.78;4938972;29;20042;-93
2023/09/13 06:50:48;;;;;;;75.68;32.88;;;;;;;-148.15;100.00;61821.78;4942283;29;20030;-96
2023/09/13 06:53:16;;;;;;;82.07;35.30;;;;;;;-148.15;100.00;61821.78;4954911;29;20071;-96
2023/09/13 06:55:41;;;;;;;79.55;33.95;;;;;;;-148.15;100.00;61821.78;4918625;29;20070;-94
2023/09/13 06:58:09;;;;;;;81.00;33.87;;;;;;;-148.15;100.00;61821.78;4937846;29;20056;-96
2023/09/13 07:00:34;;;;;;;78.32;33.58;;;;;;;-148.15;100.00;61821.78;5013564;23;20527;-93
2023/09/13 07:03:03;;;;;;;73.73;33.67;;;;;;;-148.15;100.00;61821.78;4926814;29;20099;-92
2023/09/13 07:05:29;;;;;;;77.57;34.67;;;;;;;-148.15;100.00;61821.78;4927641;29;20031;-92
2023/09/13 07:07:54;;;;;;;85.03;35.15;;;;;;;-148.15;100.00;61821.78;4928363;29;20036;-92
2023/09/13 07:10:19;;;;;;;73.67;32.90;;;;;;;-148.15;100.00;61821.78;4930123;29;20039;-92
2023/09/13 07:12:45;;;;;;;69.07;31.70;;;;;;;-148.15;100.00;61821.78;4929050;29;20039;-92
2023/09/13 07:15:10;;;;;;;67.27;30.03;;;;;;;-148.15;100.00;61821.78;4928882;29;20123;-93
2023/09/13 07:17:35;;;;;;;63.23;31.07;;;;;;;-148.15;100.00;61821.78;4931470;29;20056;-92
2023/09/13 07:20:01;;;;;;;63.03;30.45;;;;;;;-148.15;100.00;61821.78;4928089;29;20060;-93
2023/09/13 07:22:26;;;;;;;67.30;30.67;;;;;;;-148.15;100.00;61821.78;4933112;29;20031;-92
2023/09/13 07:24:52;;;;;;;60.17;30.40;;;;;;;-148.15;100.00;61821.78;4926955;29;20036;-94
2023/09/13 07:27:18;;;;;;;66.03;32.35;;;;;;;-148.15;100.00;61821.78;4940497;29;20039;-93
2023/09/13 07:29:44;;;;;;;65.72;32.45;;;;;;;-148.15;100.00;61821.78;4938350;29;20039;-93
2023/09/13 07:32:09;;;;;;;62.60;30.53;;;;;;;-148.15;100.00;61821.78;4922630;29;20040;-94
2023/09/13 07:34:34;;;;;;;60.77;30.90;;;;;;;-148.15;100.00;61821.78;4933644;29;20040;-95
2023/09/13 07:37:00;;;;;;;65.82;31.75;;;;;;;-148.15;100.00;61821.78;4933061;29;20028;-94
2023/09/13 07:39:25;;;;;;;58.60;31.20;;;;;;;-148.15;100.00;61821.78;4942145;29;20028;-94
2023/09/13 07:41:51;;;;;;;60.73;30.37;;;;;;;-148.15;100.00;61821.78;4934145;29;20028;-95
2023/09/13 07:44:17;;;;;;;63.47;31.77;;;;;;;-148.15;100.00;61821.78;4931600;29;20030;-94
2023/09/13 07:46:42;;;;;;;60.55;30.60;;;;;;;-148.15;100.00;61821.78;4929616;29;20032;-96
2023/09/13 07:49:08;;;;;;;59.08;30.55;;;;;;;-148.15;100.00;61821.78;4914160;29;20036;-90
2023/09/13 07:51:33;;;;;;;69.73;31.20;;;;;;;-148.15;100.00;61821.78;4923257;29;20551;-92
2023/09/13 07:54:07;;;;;;;64.57;31.52;;;;;;;-148.15;100.00;61821.78;4931225;29;20657;-92
2023/09/13 07:56:33;;;;;;;34.50;14.83;;;;;;;-148.15;100.00;61821.78;4930127;29;20063;-95
2023/09/13 07:58:59;;;;;;;16.65;8.15;;;;;;;-148.15;100.00;61821.78;4930476;29;20055;-89
2023/09/13 08:01:25;;;;;;;14.60;6.40;;;;;;;-148.15;100.00;61821.78;4932297;29;20031;-93
2023/09/13 08:03:50;;;;;;;12.53;6.57;;;;;;;-148.15;100.00;61821.78;4932920;29;20059;-92
2023/09/13 08:06:15;;;;;;;11.87;5.80;;;;;;;-148.15;100.00;61821.78;4928919;29;20024;-91
2023/09/13 08:08:41;;;;;;;7.33;4.73;;;;;;;-148.15;100.00;61821.78;4932333;29;20119;-91
2023/09/13 08:11:06;;;;;;;11.90;4.30;;;;;;;-148.15;100.00;61821.78;4933320;29;20302;-94
2023/09/13 08:13:31;;;;;;;5.67;3.50;;;;;;;-148.15;100.00;61821.78;4937020;29;20040;-93
2023/09/13 08:15:57;;;;;;;5.40;3.17;;;;;;;-148.15;100.00;61821.78;4936872;29;20046;-92
2023/09/13 08:18:23;;;;;;;3.95;2.30;;;;;;;-148.15;100.00;61821.78;4933928;29;20039;-92
2023/09/13 08:20:48;;;;;;;4.10;2.70;;;;;;;-148.15;100.00;61821.78;4929798;29;20023;-93
2023/09/13 08:23:14;;;;;;;2.63;2.40;;;;;;;-148.15;100.00;61821.78;4935934;29;20040;-94
2023/09/13 08:25:39;;;;;;;2.27;2.00;;;;;;;-148.15;100.00;61821.78;4917009;29;20039;-93
2023/09/13 08:28:05;;;;;;;1.90;1.80;;;;;;;-148.15;100.00;61821.78;4954209;28;20445;-93
2023/09/13 08:30:30;;;;;;;1.60;1.35;;;;;;;-148.15;100.00;61821.78;4941663;29;20054;-94
2023/09/13 08:32:56;;;;;;;1.90;1.80;;;;;;;-148.15;100.00;61821.78;4955390;29;20050;-94
2023/09/13 08:35:21;;;;;;;2.47;1.70;;;;;;;-148.15;100.00;61821.78;4957678;29;20063;-92
2023/09/13 08:37:47;;;;;;;2.10;1.33;;;;;;;-148.15;100.00;61821.78;4953914;29;20475;-94
2023/09/13 08:40:13;;;;;;;1.40;1.30;;;;;;;-148.15;100.00;61821.78;4945937;28;20047;-92
2023/09/13 08:42:40;;;;;;;3.37;1.20;;;;;;;-148.15;100.00;61821.78;4955390;28;20658;-95
2023/09/13 08:45:06;;;;;;;6.40;1.45;;;;;;;-148.15;100.00;61821.78;4959959;29;20029;-95
2023/09/13 08:47:36;;;;;;;2.85;1.20;;;;;;;-148.15;100.00;61821.78;4960675;28;20030;-94
2023/09/13 08:50:03;;;;;;;1.90;1.10;;;;;;;-148.15;100.00;61821.78;4966745;28;20057;-95
2023/09/13 08:52:37;;;;;;;2.13;1.27;;;;;;;-148.15;100.00;61821.78;4963866;29;20290;-96
2023/09/13 08:55:06;;;;;;;2.20;1.33;;;;;;;-148.15;100.00;61821.78;4947017;29;20027;-92
2023/09/13 08:57:33;;;;;;;3.55;1.20;;;;;;;-148.15;100.00;61821.78;4949539;28;20023;-96
2023/09/13 09:00:08;;;;;;;3.42;1.52;;;;;;;-148.15;100.00;61821.78;4958814;29;20043;-96
2023/09/13 09:02:35;;;;;;;2.08;1.30;;;;;;;-148.15;100.00;61821.78;4926240;29;20032;-96
2023/09/13 09:05:11;;;;;;;1.73;1.23;;;;;;;-148.15;100.00;61821.78;4942733;29;20040;-96
2023/09/13 09:07:48;;;;;;;1.35;1.25;;;;;;;-148.15;100.00;61821.78;4958454;29;20019;-96
2023/09/13 09:13:03;;;;;;;2.30;1.08;;;;;;;-148.15;100.00;61821.78;5237786;23;20043;-96
2023/09/13 09:15:35;;;;;;;1.60;1.07;;;;;;;-148.15;100.00;61821.78;4950085;29;20031;-96
2023/09/13 09:18:04;;;;;;;4.50;1.50;;;;;;;-148.15;100.00;61821.78;4948940;29;20306;-92
2023/09/13 09:20:29;;;;;;;2.35;1.40;;;;;;;-148.15;100.00;61821.78;4945363;29;20815;-94
2023/09/13 09:22:58;;;;;;;4.10;1.50;;;;;;;-148.15;100.00;61821.78;4938561;29;20027;-95
2023/09/13 09:25:24;;;;;;;1.65;1.45;;;;;;;-148.15;100.00;61821.78;4905009;29;20059;-91
2023/09/13 09:27:50;;;;;;;2.38;1.30;;;;;;;-148.15;100.00;61821.78;4899489;29;20349;-90
2023/09/13 09:30:15;;;;;;;2.57;1.20;;;;;;;-148.15;100.00;61821.78;4930403;29;20103;-91
2023/09/13 09:32:41;;;;;;;1.57;1.20;;;;;;;-148.15;100.00;61821.78;4944958;29;20023;-89
2023/09/13 09:35:07;;;;;;;2.47;1.15;;;;;;;-148.15;100.00;61821.78;4932705;29;20023;-88
2023/09/13 09:40:14;;;;;;;3.92;1.23;;;;;;;-148.15;100.00;61821.78;1080165;26;20495;-89
2023/09/13 09:42:39;;;;;;;1.67;1.10;;;;;;;-148.15;100.00;61821.78;4948855;28;20039;-89
2023/09/13 09:45:05;;;;;;;2.03;1.07;;;;;;;-148.15;100.00;61821.78;4933049;29;20027;-90
2023/09/13 09:47:36;;;;;;;1.98;1.33;;;;;;;-148.15;100.00;61821.78;4943508;29;20050;-92
2023/09/13 09:50:03;;;;;;;3.08;1.48;;;;;;;-148.15;100.00;61821.78;4951529;29;20074;-91
2023/09/13 09:52:29;;;;;;;2.77;1.17;;;;;;;-148.15;100.00;61821.78;4949968;28;20135;-89
2023/09/13 09:54:54;;;;;;;2.00;1.10;;;;;;;-148.15;100.00;61821.78;4953665;29;20603;-92
2023/09/13 09:57:25;;;;;;;1.77;1.20;;;;;;;-148.15;100.00;61821.78;4953383;29;20515;-92
2023/09/13 09:59:51;;;;;;;4.07;1.38;;;;;;;-148.15;100.00;61821.78;4954011;29;20054;-93
2023/09/13 10:02:17;;;;;;;2.60;1.27;;;;;;;-148.15;100.00;61821.78;4953600;29;20066;-91
2023/09/13 10:04:47;;;;;;;1.65;1.05;;;;;;;-148.15;100.00;61821.78;4950347;29;20642;-91
2023/09/13 10:07:13;;;;;;;1.33;1.23;;;;;;;-148.15;100.00;61821.78;4955357;29;20031;-92
2023/09/13 10:09:43;;;;;;;3.90;1.10;;;;;;;-148.15;100.00;61821.78;4955861;29;20046;-92
2023/09/13 10:12:10;;;;;;;2.28;1.27;;;;;;;-148.15;100.00;61821.78;4963295;28;20099;-91
2023/09/13 10:14:37;;;;;;;1.13;0.80;;;;;;;-148.15;100.00;61821.78;4956450;29;20369;-92
2023/09/13 10:17:04;;;;;;;2.38;1.10;;;;;;;-148.15;100.00;61821.78;4940373;29;20043;-91
2023/09/13 10:19:31;;;;;;;1.33;1.07;;;;;;;-148.15;100.00;61821.78;4938254;29;20036;-91
2023/09/13 10:21:57;;;;;;;1.53;1.00;;;;;;;-148.15;100.00;61821.78;4943973;29;20325;-89
2023/09/13 10:24:25;;;;;;;2.03;1.20;;;;;;;-148.15;100.00;61821.78;4950523;28;20020;-91
2023/09/13 10:26:54;;;;;;;2.17;1.05;;;;;;;-148.15;100.00;61821.78;4952216;28;20039;-90
2023/09/13 10:29:34;;;;;;;2.05;1.20;;;;;;;-148.15;100.00;61821.78;4952598;29;20027;-91
2023/09/13 10:32:05;;;;;;;2.90;1.10;;;;;;;-148.15;100.00;61821.78;4951162;29;20086;-91
2023/09/13 10:34:34;;;;;;;1.75;1.20;;;;;;;-148.15;100.00;61821.78;4954700;29;20019;-90
2023/09/13 10:37:12;;;;;;;1.50;1.27;;;;;;;-148.15;100.00;61821.78;4938417;29;20027;-91
2023/09/13 10:39:50;;;;;;;2.38;1.40;;;;;;;-148.15;100.00;61821.78;4957964;29;20023;-93
2023/09/13 10:42:18;;;;;;;2.20;1.50;;;;;;;-148.15;100.00;61821.78;4955668;29;20033;-90
2023/09/13 10:44:46;;;;;;;3.40;1.40;;;;;;;-148.15;100.00;61821.78;4957137;29;20286;-91
2023/09/13 10:47:12;;;;;;;1.63;1.40;;;;;;;-148.15;100.00;61821.78;4957855;29;20043;-89
2023/09/13 10:49:38;;;;;;;2.17;1.75;;;;;;;-148.15;100.00;61821.78;4959817;29;20023;-92
2023/09/13 10:52:05;;;;;;;4.18;1.70;;;;;;;-148.15;100.00;61821.78;4959984;28;20543;-90
2023/09/13 10:54:31;;;;;;;3.00;1.50;;;;;;;-148.15;100.00;61821.78;4955528;29;20056;-91
2023/09/13 10:56:57;;;;;;;1.85;1.30;;;;;;;-148.15;100.00;61821.78;4960775;28;20046;-96
2023/09/13 10:59:25;;;;;;;1.85;1.25;;;;;;;-148.15;100.00;61821.78;4970079;29;20054;-96